createdAt,value
2022-08-26T00:02:12.609Z,22.20
2022-08-26T00:04:41.631Z,14.20
2022-08-26T00:07:12.083Z,17.63
2022-08-26T00:09:40.546Z,16.07
2022-08-26T00:12:12.373Z,16.97
2022-08-26T00:14:41.767Z,17.00
2022-08-26T00:17:10.307Z,17.20
2022-08-26T00:19:38.746Z,18.83
2022-08-26T00:22:07.278Z,14.67
2022-08-26T00:24:36.806Z,15.50
2022-08-26T00:27:06.461Z,18.90
2022-08-26T00:29:37.524Z,18.40
2022-08-26T00:32:06.803Z,17.10
2022-08-26T00:34:35.767Z,15.40
2022-08-26T00:37:04.564Z,17.73
2022-08-26T00:39:39.463Z,15.43
2022-08-26T00:42:08.599Z,16.03
2022-08-26T00:44:37.259Z,16.57
2022-08-26T00:47:10.631Z,18.20
2022-08-26T00:49:42.379Z,16.83
2022-08-26T00:52:14.620Z,22.07
2022-08-26T00:54:50.019Z,17.80
2022-08-26T00:57:19.894Z,19.50
2022-08-26T00:59:51.866Z,16.50
2022-08-26T01:02:21.482Z,22.27
2022-08-26T01:04:55.445Z,17.37
2022-08-26T01:07:27.434Z,21.93
2022-08-26T01:09:58.384Z,21.00
2022-08-26T01:12:30.236Z,15.93
2022-08-26T01:14:58.525Z,16.23
2022-08-26T01:17:26.938Z,16.70
2022-08-26T01:20:01.007Z,21.70
2022-08-26T01:22:35.201Z,17.50
2022-08-26T01:25:06.871Z,29.37
2022-08-26T01:27:36.803Z,18.20
2022-08-26T01:30:06.550Z,19.70
2022-08-26T01:32:36.284Z,20.40
2022-08-26T01:35:08.679Z,16.10
2022-08-26T01:37:40.432Z,17.23
2022-08-26T01:40:16.919Z,19.30
2022-08-26T01:42:46.957Z,16.97
2022-08-26T01:45:19.471Z,17.43
2022-08-26T01:47:49.774Z,22.73
2022-08-26T01:50:30.629Z,16.93
2022-08-26T01:53:02.336Z,15.80
2022-08-26T01:55:34.184Z,17.70
2022-08-26T01:58:06.178Z,17.23
2022-08-26T02:00:36.146Z,24.27
2022-08-26T02:03:18.287Z,21.93
2022-08-26T02:05:51.259Z,15.03
2022-08-26T02:08:24.874Z,21.37
2022-08-26T02:10:55.644Z,16.90
2022-08-26T02:13:27.362Z,16.10
2022-08-26T02:15:56.346Z,16.03
2022-08-26T02:18:25.776Z,20.47
2022-08-26T02:20:55.155Z,22.10
2022-08-26T02:23:24.059Z,18.30
2022-08-26T02:25:59.770Z,15.60
2022-08-26T02:28:31.928Z,15.87
2022-08-26T02:31:00.131Z,15.93
2022-08-26T02:33:30.911Z,18.00
2022-08-26T02:35:59.106Z,20.20
2022-08-26T02:38:27.752Z,20.30
2022-08-26T02:40:57.336Z,15.53
2022-08-26T02:43:31.554Z,16.00
2022-08-26T02:46:02.362Z,22.27
2022-08-26T02:48:31.404Z,18.20
2022-08-26T02:51:00.996Z,25.73
2022-08-26T02:53:32.070Z,20.80
2022-08-26T02:56:08.229Z,18.50
2022-08-26T02:58:36.769Z,23.30
2022-08-26T03:01:05.810Z,20.60
2022-08-26T03:03:34.946Z,21.23
2022-08-26T03:06:03.108Z,16.97
2022-08-26T03:08:31.275Z,19.30
2022-08-26T03:10:59.485Z,20.97
2022-08-26T03:13:31.532Z,22.10
2022-08-26T03:16:02.211Z,20.60
2022-08-26T03:18:30.436Z,19.40
2022-08-26T03:20:58.690Z,18.23
2022-08-26T03:23:26.859Z,18.40
2022-08-26T03:25:55.660Z,21.87
2022-08-26T03:28:24.242Z,20.77
2022-08-26T03:30:57.048Z,17.67
2022-08-26T03:33:26.606Z,20.00
2022-08-26T03:35:55.657Z,18.77
2022-08-26T03:38:26.095Z,22.70
2022-08-26T03:40:56.255Z,21.93
2022-08-26T03:43:26.853Z,17.07
2022-08-26T03:45:55.142Z,22.93
2022-08-26T03:48:24.649Z,22.53
2022-08-26T03:50:53.032Z,22.57
2022-08-26T03:53:21.616Z,23.33
2022-08-26T03:55:51.881Z,21.23
2022-08-26T03:58:20.867Z,18.60
2022-08-26T04:00:50.029Z,19.90
2022-08-26T04:03:40.098Z,19.10
2022-08-26T04:06:09.102Z,19.07
2022-08-26T04:08:38.527Z,20.60
2022-08-26T04:11:07.336Z,27.63
2022-08-26T04:13:35.893Z,22.70
2022-08-26T04:16:04.634Z,17.90
2022-08-26T04:18:37.300Z,18.80
2022-08-26T04:21:09.771Z,29.83
2022-08-26T04:23:46.955Z,24.07
2022-08-26T04:26:16.767Z,22.07
2022-08-26T04:28:45.062Z,24.70
2022-08-26T04:31:14.691Z,21.80
2022-08-26T04:33:46.635Z,25.87
2022-08-26T04:36:15.632Z,21.03
2022-08-26T04:38:45.771Z,20.50
2022-08-26T04:41:15.643Z,25.37
2022-08-26T04:43:46.630Z,20.03
2022-08-26T04:46:19.842Z,22.03
2022-08-26T04:48:51.012Z,19.20
2022-08-26T04:51:20.968Z,21.90
2022-08-26T04:53:49.236Z,21.33
2022-08-26T04:56:18.466Z,29.70
2022-08-26T04:58:46.622Z,18.37
2022-08-26T05:01:14.837Z,20.87
2022-08-26T05:03:43.494Z,24.13
2022-08-26T05:06:13.352Z,18.43
2022-08-26T05:08:41.629Z,24.63
2022-08-26T05:11:10.554Z,22.00
2022-08-26T05:13:39.615Z,20.63
2022-08-26T05:16:11.561Z,20.97
2022-08-26T05:18:43.489Z,23.43
2022-08-26T05:21:22.527Z,25.63
2022-08-26T05:23:52.351Z,24.33
2022-08-26T05:26:22.918Z,30.67
2022-08-26T05:28:54.742Z,22.83
2022-08-26T05:31:26.615Z,27.93
2022-08-26T05:33:55.991Z,26.37
2022-08-26T05:36:28.579Z,28.80
2022-08-26T05:38:58.114Z,23.57
2022-08-26T05:41:34.332Z,23.17
2022-08-26T05:44:07.327Z,34.37
2022-08-26T05:46:36.804Z,22.57
2022-08-26T05:49:12.456Z,28.30
2022-08-26T05:51:47.503Z,22.93
2022-08-26T05:54:21.770Z,23.03
2022-08-26T05:56:51.427Z,30.97
2022-08-26T05:59:21.407Z,28.90
2022-08-26T06:01:53.657Z,23.83
2022-08-26T06:04:23.109Z,24.30
2022-08-26T06:06:56.261Z,23.70
2022-08-26T06:09:24.886Z,25.73
2022-08-26T06:11:53.632Z,25.87
2022-08-26T06:14:22.982Z,26.27
2022-08-26T06:16:51.149Z,24.87
2022-08-26T06:19:19.382Z,32.43
2022-08-26T06:21:54.147Z,41.30
2022-08-26T06:24:41.957Z,30.57
2022-08-26T06:27:13.697Z,32.10
2022-08-26T06:29:42.593Z,33.00
2022-08-26T06:32:10.762Z,25.30
2022-08-26T06:34:39.206Z,32.10
2022-08-26T06:37:08.783Z,31.80
2022-08-26T06:39:41.081Z,33.07
2022-08-26T06:42:10.999Z,32.57
2022-08-26T06:44:41.190Z,30.97
2022-08-26T06:47:09.575Z,32.53
2022-08-26T06:49:38.149Z,27.63
2022-08-26T06:52:08.005Z,25.97
2022-08-26T06:54:43.034Z,27.63
2022-08-26T06:57:11.806Z,28.00
2022-08-26T06:59:40.162Z,32.23
2022-08-26T07:02:08.481Z,27.90
2022-08-26T07:04:36.804Z,33.17
2022-08-26T07:07:05.311Z,31.93
2022-08-26T07:09:35.364Z,25.63
2022-08-26T07:12:07.454Z,23.50
2022-08-26T07:14:35.877Z,30.07
2022-08-26T07:17:04.069Z,25.77
2022-08-26T07:19:32.268Z,22.17
2022-08-26T07:22:03.510Z,21.57
2022-08-26T07:24:32.992Z,25.43
2022-08-26T07:27:03.045Z,27.57
2022-08-26T07:29:36.219Z,29.20
2022-08-26T07:32:05.374Z,31.23
2022-08-26T07:34:33.687Z,32.63
2022-08-26T07:37:02.191Z,27.10
2022-08-26T07:39:32.817Z,25.40
2022-08-26T07:42:01.616Z,26.17
2022-08-26T07:44:37.265Z,18.70
2022-08-26T07:47:10.063Z,24.43
2022-08-26T07:49:52.916Z,21.83
2022-08-26T07:52:26.159Z,21.67
2022-08-26T07:54:55.730Z,27.20
2022-08-26T07:57:24.254Z,26.03
2022-08-26T07:59:55.557Z,22.00
2022-08-26T08:02:24.986Z,22.57
2022-08-26T08:04:54.525Z,20.90
2022-08-26T08:07:38.584Z,24.07
2022-08-26T08:10:14.328Z,22.43
2022-08-26T08:12:43.636Z,22.00
2022-08-26T08:15:14.378Z,18.97
2022-08-26T08:17:43.853Z,23.70
2022-08-26T08:20:14.193Z,18.70
2022-08-26T08:22:43.083Z,26.33
2022-08-26T08:25:12.410Z,18.37
2022-08-26T08:27:42.973Z,23.13
2022-08-26T08:30:13.783Z,19.90
2022-08-26T08:32:43.525Z,20.07
2022-08-26T08:35:13.420Z,20.80
2022-08-26T08:37:42.424Z,18.57
2022-08-26T08:40:18.267Z,22.03
2022-08-26T08:45:30.449Z,21.03
2022-08-26T08:48:02.144Z,15.70
2022-08-26T08:50:33.814Z,21.57
2022-08-26T08:53:10.762Z,24.43
2022-08-26T08:55:49.797Z,16.60
2022-08-26T08:58:21.793Z,18.47
2022-08-26T09:00:58.321Z,27.17
2022-08-26T09:03:41.657Z,13.70
2022-08-26T09:06:17.437Z,23.07
2022-08-26T09:08:50.044Z,25.33
2022-08-26T09:11:20.041Z,18.43
2022-08-26T09:13:51.260Z,15.97
2022-08-26T09:16:25.197Z,20.67
2022-08-26T09:19:11.184Z,20.80
2022-08-26T09:21:39.597Z,16.40
2022-08-26T09:24:08.789Z,17.27
2022-08-26T09:26:47.380Z,16.67
2022-08-26T09:29:23.205Z,18.53
2022-08-26T09:32:13.883Z,22.23
2022-08-26T09:34:55.232Z,16.23
2022-08-26T09:37:35.570Z,18.00
2022-08-26T09:40:30.094Z,19.97
2022-08-26T09:43:16.023Z,19.53
2022-08-26T09:45:58.382Z,17.87
2022-08-26T09:48:36.239Z,30.83
2022-08-26T09:51:07.828Z,28.30
2022-08-26T09:53:43.751Z,12.07
2022-08-26T09:56:16.388Z,19.10
2022-08-26T09:58:47.141Z,18.53
2022-08-26T10:01:18.093Z,18.20
2022-08-26T10:03:49.178Z,16.63
2022-08-26T10:06:26.703Z,17.50
2022-08-26T10:08:59.010Z,15.37
2022-08-26T10:11:35.134Z,18.90
2022-08-26T10:14:09.079Z,18.03
2022-08-26T10:16:48.573Z,21.33
2022-08-26T10:19:22.318Z,15.40
2022-08-26T10:21:54.893Z,21.07
2022-08-26T10:24:30.351Z,29.20
2022-08-26T10:27:05.211Z,17.60
2022-08-26T10:29:39.121Z,16.73
2022-08-26T10:32:13.807Z,14.93
2022-08-26T10:34:44.941Z,15.33
2022-08-26T10:37:16.853Z,18.83
2022-08-26T10:39:57.128Z,24.37
2022-08-26T10:42:33.416Z,14.93
2022-08-26T10:45:11.902Z,22.70
2022-08-26T10:47:49.523Z,15.70
2022-08-26T10:50:20.481Z,13.47
2022-08-26T10:52:59.511Z,15.77
2022-08-26T10:55:36.468Z,16.20
2022-08-26T10:58:26.183Z,13.70
2022-08-26T11:01:22.852Z,9.93
2022-08-26T11:04:00.376Z,13.63
2022-08-26T11:06:31.589Z,11.33
2022-08-26T11:09:01.549Z,13.93
2022-08-26T11:11:46.820Z,14.40
2022-08-26T11:14:53.602Z,12.80
2022-08-26T11:17:56.673Z,12.43
2022-08-26T11:20:41.613Z,13.07
2022-08-26T11:23:50.454Z,13.63
2022-08-26T11:26:36.134Z,13.43
2022-08-26T11:29:56.691Z,12.20
2022-08-26T11:32:27.742Z,15.40
2022-08-26T11:34:58.372Z,8.40
2022-08-26T11:37:33.812Z,9.70
2022-08-26T11:40:07.704Z,11.17
2022-08-26T11:42:42.730Z,26.33
2022-08-26T11:45:25.488Z,11.23
2022-08-26T11:47:54.677Z,32.03
2022-08-26T11:50:26.485Z,14.83
2022-08-26T11:52:56.719Z,15.23
2022-08-26T11:55:26.831Z,11.90
2022-08-26T11:57:57.623Z,9.27
2022-08-26T12:00:33.529Z,5.30
2022-08-26T12:03:08.743Z,11.80
2022-08-26T12:05:43.148Z,10.30
2022-08-26T12:08:17.355Z,7.37
2022-08-26T12:10:48.239Z,12.40
2022-08-26T12:13:23.016Z,10.60
2022-08-26T12:15:56.011Z,8.53
2022-08-26T12:18:29.434Z,6.40
2022-08-26T12:21:02.342Z,9.53
2022-08-26T12:23:43.247Z,8.67
2022-08-26T12:26:21.549Z,10.20
2022-08-26T12:28:54.211Z,9.70
2022-08-26T12:31:25.853Z,15.13
2022-08-26T12:33:55.557Z,6.40
2022-08-26T12:36:27.586Z,9.13
2022-08-26T12:38:58.478Z,8.50
2022-08-26T12:41:50.574Z,11.30
2022-08-26T12:44:53.854Z,12.27
2022-08-26T12:47:33.880Z,6.90
2022-08-26T12:50:20.071Z,9.07
2022-08-26T12:53:00.255Z,6.07
2022-08-26T12:55:37.599Z,8.10
2022-08-26T12:58:23.411Z,13.50
2022-08-26T13:00:52.997Z,13.40
2022-08-26T13:03:44.776Z,10.13
2022-08-26T13:06:25.754Z,10.90
2022-08-26T13:08:56.447Z,9.63
2022-08-26T13:11:26.927Z,7.67
2022-08-26T13:14:00.015Z,8.33
2022-08-26T13:16:28.662Z,14.17
2022-08-26T13:18:59.191Z,8.50
2022-08-26T13:21:29.774Z,9.27
2022-08-26T13:24:08.203Z,6.63
2022-08-26T13:26:36.624Z,10.00
2022-08-26T13:29:10.185Z,7.63
2022-08-26T13:31:41.057Z,10.33
2022-08-26T13:34:11.664Z,7.23
2022-08-26T13:36:39.907Z,7.87
2022-08-26T13:39:08.235Z,10.97
2022-08-26T13:41:36.696Z,9.33
2022-08-26T13:44:06.733Z,7.40
2022-08-26T13:46:35.235Z,6.80
2022-08-26T13:49:04.011Z,9.33
2022-08-26T13:51:32.639Z,10.37
2022-08-26T13:54:01.484Z,17.33
2022-08-26T13:56:31.002Z,11.43
2022-08-26T13:59:01.173Z,8.13
2022-08-26T14:01:32.318Z,5.47
2022-08-26T14:04:00.662Z,9.57
2022-08-26T14:06:28.837Z,14.50
2022-08-26T14:08:57.021Z,13.43
2022-08-26T14:11:25.630Z,10.70
2022-08-26T14:13:53.804Z,9.83
2022-08-26T14:16:25.768Z,7.27
2022-08-26T14:18:55.494Z,7.50
2022-08-26T14:21:26.387Z,7.20
2022-08-26T14:23:59.004Z,8.10
2022-08-26T14:26:30.098Z,7.20
2022-08-26T14:28:59.526Z,5.10
2022-08-26T14:31:29.347Z,9.60
2022-08-26T14:34:02.295Z,6.13
2022-08-26T14:36:32.062Z,6.03
2022-08-26T14:39:03.252Z,9.43
2022-08-26T14:41:32.977Z,5.40
2022-08-26T14:44:05.087Z,8.40
2022-08-26T14:46:40.268Z,9.13
2022-08-26T14:49:10.836Z,6.50
2022-08-26T14:51:39.550Z,6.63
2022-08-26T14:54:13.690Z,6.03
2022-08-26T14:56:45.807Z,6.83
2022-08-26T14:59:15.742Z,7.20
2022-08-26T15:01:44.062Z,7.43
2022-08-26T15:04:14.138Z,8.57
2022-08-26T15:06:42.365Z,4.97
2022-08-26T15:09:11.535Z,7.60
2022-08-26T15:11:39.795Z,11.83
2022-08-26T15:14:08.701Z,6.97
2022-08-26T15:16:48.298Z,7.70
2022-08-26T15:19:18.688Z,6.50
2022-08-26T15:21:47.311Z,4.90
2022-08-26T15:24:17.606Z,8.60
2022-08-26T15:26:46.868Z,9.33
2022-08-26T15:29:15.741Z,11.27
2022-08-26T15:31:43.984Z,7.53
2022-08-26T15:34:16.694Z,10.23
2022-08-26T15:36:47.955Z,6.13
2022-08-26T15:39:17.893Z,4.70
2022-08-26T15:41:46.463Z,6.03
2022-08-26T15:44:18.525Z,7.57
2022-08-26T15:46:48.638Z,7.77
2022-08-26T15:49:18.642Z,7.97
2022-08-26T15:51:50.407Z,5.07
2022-08-26T15:54:22.485Z,5.47
2022-08-26T15:56:52.201Z,7.90
2022-08-26T15:59:22.558Z,6.13
2022-08-26T16:01:50.957Z,10.23
2022-08-26T16:04:19.297Z,7.57
2022-08-26T16:06:50.271Z,7.47
2022-08-26T16:09:20.220Z,8.80
2022-08-26T16:11:48.391Z,7.40
2022-08-26T16:14:16.787Z,10.13
2022-08-26T16:16:45.062Z,11.70
2022-08-26T16:19:13.759Z,24.30
2022-08-26T16:21:43.154Z,9.00
2022-08-26T16:24:13.138Z,8.13
2022-08-26T16:26:42.887Z,7.87
2022-08-26T16:29:13.807Z,6.17
2022-08-26T16:31:42.699Z,7.17
2022-08-26T16:34:11.318Z,8.17
2022-08-26T16:36:40.627Z,7.37
2022-08-26T16:39:09.859Z,6.97
2022-08-26T16:41:39.590Z,6.13
2022-08-26T16:44:08.751Z,6.30
2022-08-26T16:46:37.065Z,6.23
2022-08-26T16:49:05.528Z,6.17
2022-08-26T16:51:37.651Z,12.80
2022-08-26T16:54:08.119Z,8.27
2022-08-26T16:56:37.374Z,8.17
2022-08-26T16:59:10.508Z,8.63
2022-08-26T17:01:38.914Z,8.60
2022-08-26T17:04:07.126Z,8.50
2022-08-26T17:06:35.381Z,7.03
2022-08-26T17:09:03.554Z,13.67
2022-08-26T17:11:31.955Z,8.20
2022-08-26T17:14:00.371Z,9.03
2022-08-26T17:16:30.038Z,8.73
2022-08-26T17:18:59.315Z,10.23
2022-08-26T17:21:28.912Z,10.03
2022-08-26T17:23:57.248Z,9.77
2022-08-26T17:26:25.428Z,9.90
2022-08-26T17:28:53.958Z,10.10
2022-08-26T17:31:24.047Z,11.40
2022-08-26T17:33:55.419Z,11.00
2022-08-26T17:36:27.785Z,14.73
2022-08-26T17:38:57.787Z,11.80
2022-08-26T17:41:27.054Z,13.40
2022-08-26T17:43:55.839Z,10.13
2022-08-26T17:46:24.730Z,10.93
2022-08-26T17:48:54.276Z,11.33
2022-08-26T17:51:23.511Z,10.07
2022-08-26T17:53:52.911Z,9.90
2022-08-26T17:56:25.450Z,12.13
2022-08-26T17:58:54.703Z,11.33
2022-08-26T18:01:27.507Z,10.20
2022-08-26T18:04:00.386Z,11.43
2022-08-26T18:06:31.254Z,14.33
2022-08-26T18:08:59.944Z,12.33
2022-08-26T18:11:29.475Z,10.53
2022-08-26T18:13:57.747Z,13.40
2022-08-26T18:16:26.103Z,9.53
2022-08-26T18:18:54.995Z,14.03
2022-08-26T18:21:26.679Z,10.27
2022-08-26T18:23:55.845Z,10.07
2022-08-26T18:26:27.296Z,9.57
2022-08-26T18:28:55.606Z,11.97
2022-08-26T18:31:24.458Z,9.93
2022-08-26T18:33:52.993Z,10.20
2022-08-26T18:36:24.906Z,11.20
2022-08-26T18:38:54.059Z,10.63
2022-08-26T18:41:24.490Z,14.93
2022-08-26T18:43:54.264Z,14.53
2022-08-26T18:46:25.824Z,11.23
2022-08-26T18:48:55.102Z,11.93
2022-08-26T18:51:27.158Z,11.40
2022-08-26T18:53:55.315Z,11.90
2022-08-26T18:56:23.920Z,13.87
2022-08-26T18:58:52.373Z,10.47
2022-08-26T19:01:25.515Z,11.10
2022-08-26T19:03:55.696Z,11.17
2022-08-26T19:06:26.170Z,12.10
2022-08-26T19:08:54.670Z,12.13
2022-08-26T19:11:31.610Z,11.60
2022-08-26T19:14:00.889Z,11.20
2022-08-26T19:16:30.671Z,14.03
2022-08-26T19:19:00.595Z,12.67
2022-08-26T19:21:30.607Z,10.50
2022-08-26T19:23:59.957Z,11.57
2022-08-26T19:26:29.299Z,10.60
2022-08-26T19:28:57.540Z,13.63
2022-08-26T19:31:25.879Z,12.10
2022-08-26T19:33:54.121Z,11.10
2022-08-26T19:36:24.763Z,11.93
2022-08-26T19:38:55.805Z,11.07
2022-08-26T19:41:36.582Z,10.00
2022-08-26T19:44:08.239Z,12.73
2022-08-26T19:49:10.413Z,11.93
2022-08-26T19:51:38.606Z,12.13
2022-08-26T19:54:08.305Z,14.17
2022-08-26T19:56:36.542Z,11.87
2022-08-26T19:59:04.814Z,11.50
2022-08-26T20:01:33.063Z,12.13
2022-08-26T20:04:01.327Z,11.73
2022-08-26T20:06:29.542Z,13.77
2022-08-26T20:08:58.116Z,12.73
2022-08-26T20:11:27.661Z,12.73
2022-08-26T20:13:55.818Z,14.83
2022-08-26T20:16:24.139Z,12.73
2022-08-26T20:19:10.129Z,14.00
2022-08-26T20:21:40.072Z,12.43
2022-08-26T20:24:10.541Z,13.57
2022-08-26T20:26:42.275Z,13.97
2022-08-26T20:29:12.592Z,14.20
2022-08-26T20:31:42.319Z,13.50
2022-08-26T20:34:11.078Z,13.93
2022-08-26T20:36:41.234Z,14.67
2022-08-26T20:39:10.770Z,15.23
2022-08-26T20:41:41.020Z,14.03
2022-08-26T20:44:09.549Z,14.77
2022-08-26T20:46:38.800Z,14.40
2022-08-26T20:49:07.905Z,13.30
2022-08-26T20:51:38.467Z,12.93
2022-08-26T20:54:07.631Z,12.20
2022-08-26T20:56:36.537Z,14.10
2022-08-26T20:59:07.803Z,13.27
2022-08-26T21:01:41.915Z,14.90
2022-08-26T21:04:14.137Z,13.10
2022-08-26T21:06:49.906Z,14.03
2022-08-26T21:09:22.573Z,13.60
2022-08-26T21:11:51.542Z,13.90
2022-08-26T21:14:23.165Z,15.90
2022-08-26T21:16:54.818Z,14.90
2022-08-26T21:19:23.212Z,15.13
2022-08-26T21:21:51.592Z,15.50
2022-08-26T21:24:19.822Z,16.70
2022-08-26T21:26:48.686Z,16.50
2022-08-26T21:29:16.882Z,17.10
2022-08-26T21:31:46.952Z,18.17
2022-08-26T21:34:15.722Z,21.70
2022-08-26T21:36:43.986Z,18.70
2022-08-26T21:39:12.458Z,18.03
2022-08-26T21:41:41.355Z,22.23
2022-08-26T21:44:10.600Z,16.87
2022-08-26T21:46:38.993Z,16.40
2022-08-26T21:49:12.515Z,16.00
2022-08-26T21:51:43.948Z,19.00
2022-08-26T21:54:12.893Z,18.43
2022-08-26T21:56:46.616Z,19.50
2022-08-26T21:59:17.051Z,19.03
2022-08-26T22:01:45.442Z,19.07
2022-08-26T22:04:15.754Z,19.80
2022-08-26T22:06:45.880Z,20.10
2022-08-26T22:09:15.934Z,23.67
2022-08-26T22:11:44.555Z,19.70
2022-08-26T22:14:13.144Z,22.30
2022-08-26T22:16:41.436Z,21.80
2022-08-26T22:19:20.885Z,21.80
2022-08-26T22:21:54.471Z,24.00
2022-08-26T22:24:25.226Z,23.30
2022-08-26T22:26:54.586Z,19.67
2022-08-26T22:29:24.314Z,21.20
2022-08-26T22:31:52.677Z,18.27
2022-08-26T22:34:23.186Z,19.00
2022-08-26T22:36:52.053Z,18.17
2022-08-26T22:39:23.017Z,18.43
2022-08-26T22:41:52.357Z,18.53
2022-08-26T22:44:22.082Z,16.53
2022-08-26T22:46:54.225Z,16.97
2022-08-26T22:49:24.412Z,18.17
2022-08-26T22:51:52.620Z,18.60
2022-08-26T22:54:20.847Z,19.17
2022-08-26T22:56:49.035Z,21.20
2022-08-26T22:59:17.250Z,20.73
2022-08-26T23:01:47.026Z,16.90
2022-08-26T23:04:15.577Z,18.10
2022-08-26T23:06:47.324Z,18.80
2022-08-26T23:09:17.861Z,17.60
2022-08-26T23:11:47.452Z,17.93
2022-08-26T23:14:16.904Z,17.00
2022-08-26T23:16:45.418Z,18.10
2022-08-26T23:19:16.476Z,14.00
2022-08-26T23:21:46.414Z,15.27
2022-08-26T23:24:14.850Z,14.10
2022-08-26T23:26:43.989Z,14.17
2022-08-26T23:29:15.588Z,15.90
2022-08-26T23:31:44.427Z,17.23
2022-08-26T23:34:31.303Z,15.33
2022-08-26T23:37:01.194Z,16.13
2022-08-26T23:39:29.537Z,17.60
2022-08-26T23:41:58.122Z,18.20
2022-08-26T23:44:26.831Z,16.40
2022-08-26T23:46:55.397Z,15.60
2022-08-26T23:49:24.668Z,17.73
2022-08-26T23:52:10.455Z,15.17
2022-08-26T23:54:40.540Z,13.73
2022-08-26T23:57:10.334Z,17.23
2022-08-26T23:59:39.291Z,14.97
